Flight Track Log - Related Links

Times and Time Zones

All times are in EDT time to prevent confusion due to time zone crossing. See the UAL1259 flight status page for this flight to view local times or setup timezone preferences in your user account.

Time Position Orientation Groundspeed Altitude Reporting Facility
EDT Latitude Longitude Course Direction KTS MPH feet Rate Location/Type
Sun 05:00:01 PM 39.8825 -75.1981 68° East 182 209 800  Level FlightAware ADS-B
Sun 05:00:16 PM 39.8875 -75.1812 69° East 204 235 1,100 1,800 Climbing FlightAware ADS-B
Sun 05:00:31 PM 39.8929 -75.1628 69° East 217 250 1,700 2,786 Climbing FlightAware ADS-B
Sun 05:00:44 PM 39.8979 -75.1473 67° East 215 247 2,400 3,176 Climbing FlightAware ADS-B
Sun 05:00:48 PM 39.9001 -75.1428 57° Northeast 214 246 2,600 3,333 Climbing FlightAware ADS-B
Sun 05:00:53 PM 39.9032 -75.1381 49° Northeast 216 249 2,900 2,400 Climbing FlightAware ADS-B
Sun 05:00:58 PM 39.9074 -75.1337 39° Northeast 221 254 3,000 1,800 Climbing FlightAware ADS-B
Sun 05:01:03 PM 39.9115 -75.1306 30° Northeast 225 259 3,200 3,000 Climbing FlightAware ADS-B
Sun 05:01:06 PM 39.9147 -75.1288 23° Northeast 228 262 3,400 2,571 Climbing FlightAware ADS-B
Sun 05:01:10 PM 39.9185 -75.1274 16° North 232 267 3,500 1,800 Climbing FlightAware ADS-B
Sun 05:01:16 PM 39.9254 -75.1264 North 238 274 3,700 2,667 Climbing FlightAware ADS-B
Sun 05:01:19 PM 39.9293 -75.1267 357° North 241 277 3,900 2,571 Climbing FlightAware ADS-B
Sun 05:01:23 PM 39.9335 -75.1277 350° North 244 281 4,000 2,000 Climbing FlightAware ADS-B
Sun 05:01:28 PM 39.9386 -75.1299 342° North 246 283 4,200 3,000 Climbing FlightAware ADS-B
Sun 05:01:31 PM 39.9421 -75.1321 334° Northwest 248 285 4,400 3,333 Climbing FlightAware ADS-B
Sun 05:01:37 PM 39.9474 -75.1368 326° Northwest 248 285 4,700 3,333 Climbing FlightAware ADS-B
Sun 05:01:40 PM 39.9503 -75.1402 318° Northwest 249 287 4,900 3,429 Climbing FlightAware ADS-B
Sun 05:01:44 PM 39.9533 -75.1443 314° West 252 290 5,100 2,727 Climbing FlightAware ADS-B
Sun 05:01:51 PM 39.9587 -75.1529 309° West 256 295 5,400 2,870 Climbing FlightAware ADS-B
Sun 05:02:07 PM 39.9696 -75.1721 307° West 259 298 6,200 2,516 Climbing FlightAware ADS-B
Sun 05:02:22 PM 39.9809 -75.1916 307° West 275 316 6,700 2,483 Climbing FlightAware ADS-B
Sun 05:02:36 PM 39.9919 -75.2098 308° West 279 321 7,400 3,000 Climbing FlightAware ADS-B
Sun 05:02:52 PM 40.0053 -75.2302 311° West 278 320 8,200 2,903 Climbing FlightAware ADS-B
Sun 05:03:07 PM 40.0182 -75.2493 311° West 284 327 8,900 2,182 Climbing FlightAware ADS-B
Sun 05:03:25 PM 40.0339 -75.2733 311° West 298 343 9,400 909 Climbing FlightAware ADS-B
Sun 05:03:40 PM 40.0485 -75.2954 311° West 318 366 9,400 182 Level FlightAware ADS-B
Sun 05:03:58 PM 40.0654 -75.3210 311° West 319 367 9,500 909 Climbing FlightAware ADS-B
Sun 05:04:13 PM 40.0801 -75.3434 311° West 317 365 9,900 2,533 Climbing FlightAware ADS-B
Sun 05:04:43 PM 40.1087 -75.3868 311° West 318 366 11,400 2,500 Climbing FlightAware ADS-B
Sun 05:05:13 PM 40.1383 -75.4319 311° West 327 376 12,400 1,100 Climbing FlightAware ADS-B
Sun 05:05:43 PM 40.1678 -75.4770 311° West 327 376 12,500 900 Climbing FlightAware ADS-B
Sun 05:06:13 PM 40.1973 -75.5223 310° West 328 377 13,300 2,164 Climbing FlightAware ADS-B
Sun 05:06:44 PM 40.2274 -75.5684 311° West 331 381 14,700 2,557 Climbing FlightAware ADS-B
Sun 05:07:14 PM 40.2583 -75.6146 311° West 339 390 15,900 1,700 Climbing FlightAware ADS-B
Sun 05:07:44 PM 40.2896 -75.6616 311° West 345 397 16,400 500 Climbing FlightAware ADS-B
Sun 05:08:14 PM 40.3209 -75.7089 311° West 342 394 16,400 985 Level FlightAware ADS-B
Sun 05:08:51 PM 40.3593 -75.7668 311° West 344 396 17,500 1,941 Climbing FlightAware ADS-B
Sun 05:09:22 PM 40.3900 -75.8130 311° West 349 402 18,600 2,294 Climbing FlightAware ADS-B
Sun 05:09:25 PM 40.3946 -75.8201 310° West 349 402 18,800 2,129 Climbing FlightAware ADS-B
Sun 05:09:53 PM 40.4244 -75.8665 310° West 357 411 19,700 1,895 Climbing FlightAware ADS-B
Sun 05:10:03 PM 40.4339 -75.8864 302° West 357 411 20,000 1,909 Climbing FlightAware ADS-B
Sun 05:10:15 PM 40.4417 -75.9100 293° West 357 411 20,400 2,000 Climbing FlightAware ADS-B
Sun 05:10:24 PM 40.4456 -75.9272 287° West 356 410 20,700 2,267 Climbing FlightAware ADS-B
Sun 05:11:00 PM 40.4582 -76.0035 282° West 356 410 22,100 2,386 Climbing FlightAware ADS-B
Sun 05:11:52 PM 40.4759 -76.1127 282° West 349 402 24,200 2,195 Climbing FlightAware ADS-B
Sun 05:12:22 PM 40.4859 -76.1752 282° West 350 403 25,100 1,600 Climbing FlightAware ADS-B
Sun 05:12:52 PM 40.4950 -76.2310 282° West 354 407 25,800 1,543 Climbing FlightAware ADS-B
Sun 05:12:57 PM 40.4974 -76.2474 281° West 357 411 26,000 1,650 Climbing FlightAware ADS-B
Sun 05:13:32 PM 40.5093 -76.3216 282° West 361 415 26,900 1,479 Climbing FlightAware ADS-B
Sun 05:14:10 PM 40.5226 -76.4051 282° West 365 420 27,800 1,391 Climbing FlightAware ADS-B
Sun 05:14:41 PM 40.5333 -76.4721 282° West 368 423 28,500 1,379 Climbing FlightAware ADS-B
Sun 05:15:37 PM 40.5524 -76.5938 282° West 369 425 29,800 891 Climbing FlightAware ADS-B
Sun 05:16:22 PM 40.5640 -76.6810 280° West 366 421 30,000 1,244 Climbing FlightAware ADS-B
Sun 05:16:59 PM 40.5691 -76.7745 274° West 367 422 31,500 1,520 Climbing FlightAware ADS-B
Sun 05:17:37 PM 40.5760 -76.8480 277° West 372 428 31,900 805 Climbing FlightAware ADS-B
Sun 05:18:21 PM 40.5858 -76.9589 277° West 376 433 32,600 1,000 Climbing FlightAware ADS-B
Sun 05:18:55 PM 40.5928 -77.0366 277° West 379 436 33,200 977 Climbing FlightAware ADS-B
Sun 05:19:47 PM 40.6020 -77.1440 276° West 378 435 34,000 923 Climbing FlightAware ADS-B
Sun 05:20:00 PM 40.6053 -77.1849 276° West 377 434 34,200 667 Climbing FlightAware ADS-B
Sun 05:20:32 PM 40.6110 -77.2520 276° West 381 438 34,500 701 Climbing FlightAware ADS-B
Sun 05:21:17 PM 40.6200 -77.3570 276° West 384 442 35,100 776 Climbing FlightAware ADS-B
Sun 05:21:57 PM 40.6280 -77.4480 277° West 385 443 35,600 635 Climbing FlightAware ADS-B
Sun 05:22:42 PM 40.6360 -77.5520 276° West 386 444 36,000 282 Climbing FlightAware ADS-B
Sun 05:23:22 PM 40.6440 -77.6420 277° West 388 447 36,000  Level FlightAware ADS-B
Sun 05:24:02 PM 40.6510 -77.7380 276° West 389 448 36,000  Level FlightAware ADS-B
Sun 05:24:47 PM 40.6630 -77.8480 278° West 392 451 36,000  Level FlightAware ADS-B
Sun 05:25:22 PM 40.6740 -77.9300 280° West 392 451 36,000  Level FlightAware ADS-B
Sun 05:26:07 PM 40.6890 -78.0320 281° West 392 451 36,000  Level FlightAware ADS-B
Sun 05:26:52 PM 40.7030 -78.1370 280° West 391 450 36,000  Level FlightAware ADS-B
Sun 05:27:32 PM 40.7170 -78.2340 281° West 389 448 36,000  Level FlightAware ADS-B
Sun 05:28:07 PM 40.7270 -78.3110 280° West 388 447 36,000  Level FlightAware ADS-B
Sun 05:28:57 PM 40.7430 -78.4280 280° West 386 444 36,000  Level FlightAware ADS-B
Sun 05:29:42 PM 40.7570 -78.5290 280° West 387 445 36,000  Level FlightAware ADS-B
Sun 05:30:22 PM 40.7700 -78.6250 280° West 389 448 36,000  Level FlightAware ADS-B
Sun 05:31:02 PM 40.7830 -78.7230 280° West 389 448 36,000  Level FlightAware ADS-B
Sun 05:31:47 PM 40.7960 -78.8210 280° West 390 449 36,000  Level FlightAware ADS-B
Sun 05:32:27 PM 40.8090 -78.9200 280° West 390 449 36,000  Level FlightAware ADS-B
Sun 05:33:12 PM 40.8220 -79.0240 279° West 391 450 36,000  Level FlightAware ADS-B
Sun 05:33:52 PM 40.8350 -79.1200 280° West 392 451 36,000  Level FlightAware ADS-B
Sun 05:34:32 PM 40.8460 -79.2120 279° West 393 452 36,000  Level FlightAware ADS-B
Sun 05:35:17 PM 40.8600 -79.3180 280° West 394 453 36,000  Level FlightAware ADS-B
Sun 05:35:57 PM 40.8720 -79.4140 279° West 394 453 36,000  Level FlightAware ADS-B
Sun 05:36:37 PM 40.8850 -79.5110 280° West 395 455 36,000  Level FlightAware ADS-B
Sun 05:37:22 PM 40.8980 -79.6180 279° West 397 457 36,000  Level FlightAware ADS-B
Sun 05:38:02 PM 40.9080 -79.7040 279° West 397 457 36,000  Level FlightAware ADS-B
Sun 05:38:47 PM 40.9230 -79.8260 279° West 398 458 36,000  Level FlightAware ADS-B
Sun 05:39:27 PM 40.9350 -79.9210 280° West 398 458 36,000  Level FlightAware ADS-B
Sun 05:40:12 PM 40.9490 -80.0310 280° West 397 457 36,000  Level FlightAware ADS-B
Sun 05:40:52 PM 40.9600 -80.1230 279° West 397 457 36,000  Level FlightAware ADS-B
Sun 05:41:32 PM 40.9710 -80.2230 278° West 397 457 36,000  Level FlightAware ADS-B
Sun 05:42:17 PM 40.9840 -80.3290 279° West 397 457 36,000  Level FlightAware ADS-B
Sun 05:42:57 PM 40.9950 -80.4270 278° West 397 457 36,000  Level FlightAware ADS-B
Sun 05:43:37 PM 41.0070 -80.5220 280° West 398 458 36,000  Level FlightAware ADS-B
Sun 05:44:22 PM 41.0190 -80.6280 279° West 398 458 36,000  Level FlightAware ADS-B
Sun 05:45:02 PM 41.0300 -80.7260 278° West 399 459 36,000  Level FlightAware ADS-B
Sun 05:45:47 PM 41.0420 -80.8320 279° West 399 459 36,000  Level FlightAware ADS-B
Sun 05:46:27 PM 41.0510 -80.9320 277° West 397 457 36,000  Level FlightAware ADS-B
Sun 05:47:12 PM 41.0580 -81.0380 275° West 397 457 36,000  Level FlightAware ADS-B
Sun 05:47:52 PM 41.0640 -81.1350 275° West 397 457 36,000  Level FlightAware ADS-B
Sun 05:48:32 PM 41.0700 -81.2320 275° West 397 457 36,000  Level FlightAware ADS-B
Sun 05:49:17 PM 41.0770 -81.3400 275° West 397 457 36,000  Level FlightAware ADS-B
Sun 05:49:57 PM 41.0830 -81.4370 275° West 398 458 36,000  Level FlightAware ADS-B
Sun 05:50:42 PM 41.0900 -81.5500 275° West 401 461 36,000  Level FlightAware ADS-B
Sun 05:51:22 PM 41.0960 -81.6440 275° West 403 464 36,000  Level FlightAware ADS-B
Sun 05:52:02 PM 41.1010 -81.7430 274° West 404 465 36,000  Level FlightAware ADS-B
Sun 05:52:47 PM 41.1080 -81.8550 275° West 405 466 36,000  Level FlightAware ADS-B
Sun 05:53:27 PM 41.1140 -81.9550 275° West 406 467 36,000  Level FlightAware ADS-B
Sun 05:54:07 PM 41.1200 -82.0550 275° West 407 468 36,000  Level FlightAware ADS-B
Sun 05:54:52 PM 41.1250 -82.1630 274° West 406 467 36,000  Level FlightAware ADS-B
Sun 05:55:32 PM 41.1310 -82.2650 274° West 407 468 36,000  Level FlightAware ADS-B
Sun 05:56:12 PM 41.1360 -82.3620 274° West 407 468 36,000  Level FlightAware ADS-B
Sun 05:56:57 PM 41.1420 -82.4760 274° West 405 466 36,000  Level FlightAware ADS-B
Sun 05:57:37 PM 41.1470 -82.5650 274° West 404 465 36,000  Level FlightAware ADS-B
Sun 05:58:22 PM 41.1530 -82.6860 274° West 404 465 36,000  Level FlightAware ADS-B
Sun 05:59:02 PM 41.1580 -82.7800 274° West 405 466 36,000  Level FlightAware ADS-B
Sun 05:59:47 PM 41.1620 -82.8830 273° West 405 466 36,000  Level FlightAware ADS-B
Sun 06:00:22 PM 41.1680 -82.9840 275° West 408 470 36,000  Level FlightAware ADS-B
Sun 06:01:12 PM 41.1740 -83.1060 274° West 411 473 36,000  Level FlightAware ADS-B
Sun 06:01:52 PM 41.1790 -83.2110 274° West 412 474 36,000  Level FlightAware ADS-B
Sun 06:02:32 PM 41.1840 -83.3120 274° West 413 475 36,000  Level FlightAware ADS-B
Sun 06:03:17 PM 41.1890 -83.4250 273° West 414 476 36,000  Level FlightAware ADS-B
Sun 06:03:57 PM 41.1940 -83.5270 274° West 415 478 36,000  Level FlightAware ADS-B
Sun 06:04:42 PM 41.1990 -83.6430 273° West 415 478 36,000  Level FlightAware ADS-B
Sun 06:05:22 PM 41.2030 -83.7430 273° West 415 478 36,000  Level FlightAware ADS-B
Sun 06:06:02 PM 41.2080 -83.8470 274° West 414 476 36,000  Level FlightAware ADS-B
Sun 06:06:47 PM 41.2120 -83.9540 273° West 413 475 36,000  Level FlightAware ADS-B
Sun 06:07:27 PM 41.2170 -84.0600 274° West 412 474 36,000  Level FlightAware ADS-B
Sun 06:08:12 PM 41.2210 -84.1730 273° West 411 473 36,000  Level FlightAware ADS-B
Sun 06:08:52 PM 41.2250 -84.2740 273° West 409 471 36,000 -150 Level FlightAware ADS-B
Sun 06:09:32 PM 41.2270 -84.3750 272° West 409 471 35,800 -635 Descending FlightAware ADS-B
Sun 06:10:17 PM 41.2300 -84.4820 272° West 408 470 35,100 -988 Descending FlightAware ADS-B
Sun 06:10:57 PM 41.2330 -84.5860 272° West 412 474 34,400 -825 Descending FlightAware ADS-B
Sun 06:11:37 PM 41.2360 -84.6850 272° West 398 458 34,000 -282 Descending FlightAware ADS-B
Sun 06:12:22 PM 41.2390 -84.7870 272° West 410 472 34,000  Level FlightAware ADS-B
Sun 06:13:02 PM 41.2430 -84.8930 273° West 412 474 34,000  Level FlightAware ADS-B
Sun 06:13:47 PM 41.2480 -85.0050 273° West 412 474 34,000  Level FlightAware ADS-B
Sun 06:14:27 PM 41.2520 -85.1140 273° West 412 474 34,000  Level FlightAware ADS-B
Sun 06:15:12 PM 41.2560 -85.2210 273° West 414 476 34,000  Level FlightAware ADS-B
Sun 06:15:52 PM 41.2600 -85.3250 273° West 415 478 34,000  Level FlightAware ADS-B
Sun 06:16:32 PM 41.2640 -85.4290 273° West 414 476 34,000 -71 Level FlightAware ADS-B
Sun 06:17:17 PM 41.2670 -85.5400 272° West 413 475 33,900 -1,074 Descending FlightAware ADS-B
Sun 06:18:07 PM 41.2710 -85.6620 273° West 416 479 32,300 -3,720 Descending FlightAware ADS-B
Sun 06:18:57 PM 41.2760 -85.8020 273° West 440 506 27,700 -3,882 Descending FlightAware ADS-B
Sun 06:19:32 PM 41.2790 -85.8960 272° West 416 479 26,800 -1,875 Descending FlightAware ADS-B
Sun 06:20:17 PM 41.2830 -86.0080 273° West 404 465 25,200 -2,329 Descending FlightAware ADS-B
Sun 06:20:57 PM 41.3010 -86.1060 284° West 398 458 23,500 -2,047 Descending FlightAware ADS-B
Sun 06:21:42 PM 41.3270 -86.2070 289° West 381 438 22,300 -1,200 Descending FlightAware ADS-B
Sun 06:22:12 PM 41.3430 -86.2700 289° West 364 419 22,000 -212 Descending FlightAware ADS-B
Sun 06:23:07 PM 41.3720 -86.3880 288° West 357 411 22,000 -189 Level FlightAware ADS-B
Sun 06:23:47 PM 41.3920 -86.4700 288° West 352 405 21,700 -750 Descending FlightAware ADS-B
Sun 06:24:27 PM 41.4130 -86.5520 289° West 358 412 21,000 -988 Descending FlightAware ADS-B
Sun 06:25:12 PM 41.4370 -86.6480 288° West 364 419 20,300 -918 Descending FlightAware ADS-B
Sun 06:25:52 PM 41.4570 -86.7330 287° West 365 420 19,700 -988 Descending FlightAware ADS-B
Sun 06:26:37 PM 41.4810 -86.8280 289° West 350 403 18,900 -1,553 Descending FlightAware ADS-B
Sun 06:27:17 PM 41.5000 -86.9060 288° West 349 402 17,500 -2,400 Descending FlightAware ADS-B
Sun 06:27:57 PM 41.5210 -86.9930 288° West 356 410 15,700 -2,400 Descending FlightAware ADS-B
Sun 06:28:42 PM 41.5430 -87.0840 288° West 352 405 14,100 -2,047 Descending FlightAware ADS-B
Sun 06:29:22 PM 41.5630 -87.1650 288° West 350 403 12,800 -2,118 Descending FlightAware ADS-B
Sun 06:30:07 PM 41.5930 -87.2610 293° West 348 400 11,100 -2,047 Descending FlightAware ADS-B
Sun 06:30:47 PM 41.6310 -87.3250 308° West 344 396 9,900 -1,286 Descending FlightAware ADS-B
Sun 06:31:17 PM 41.6600 -87.3720 310° West 337 388 9,600 -327 Descending FlightAware ADS-B
Sun 06:31:42 PM 41.6850 -87.4130 309° West 334 384 9,600  Level FlightAware ADS-B
Sun 06:32:12 PM 41.7120 -87.4580 309° West 332 382 9,600  Level FlightAware ADS-B
Sun 06:32:37 PM 41.7390 -87.5030 309° West 332 382 9,600  Level FlightAware ADS-B
Sun 06:32:52 PM 41.7540 -87.5290 308° West 333 383 9,600  Level FlightAware ADS-B
Sun 06:33:22 PM 41.7820 -87.5740 310° West 334 384 9,600  Level FlightAware ADS-B
Sun 06:33:32 PM 41.7910 -87.5900 307° West 332 382 9,600  Level FlightAware ADS-B
Sun 06:34:02 PM 41.8190 -87.6360 309° West 297 342 9,600 -133 Level FlightAware ADS-B
Sun 06:34:17 PM 41.8270 -87.6610 293° West 284 327 9,500 -900 Descending FlightAware ADS-B
Sun 06:34:42 PM 41.8360 -87.7000 287° West 277 319 9,000 -1,200 Descending FlightAware ADS-B
Sun 06:34:57 PM 41.8430 -87.7270 289° West 272 313 8,700 -1,200 Descending FlightAware ADS-B
Sun 06:35:27 PM 41.8550 -87.7750 289° West 267 307 8,100 -1,200 Descending FlightAware ADS-B
Sun 06:35:52 PM 41.8640 -87.8090 290° West 263 303 7,600 -1,200 Descending FlightAware ADS-B
Sun 06:36:07 PM 41.8700 -87.8340 288° West 260 299 7,300 -1,200 Descending FlightAware ADS-B
Sun 06:36:27 PM 41.8740 -87.8650 280° West 256 295 6,900 -764 Descending FlightAware ADS-B
Sun 06:37:02 PM 41.8730 -87.9190 269° West 251 289 6,600 -360 Descending FlightAware ADS-B
Sun 06:37:17 PM 41.8720 -87.9440 267° West 253 291 6,600  Level FlightAware ADS-B
Sun 06:37:47 PM 41.8710 -87.9930 268° West 249 287 6,600  Level FlightAware ADS-B
Sun 06:38:17 PM 41.8700 -88.0340 268° West 223 257 6,600 -436 Level FlightAware ADS-B
Sun 06:38:42 PM 41.8700 -88.0680 270° West 213 245 6,200 -1,067 Descending FlightAware ADS-B
Sun 06:39:02 PM 41.8690 -88.0930 267° West 212 244 5,800 -1,200 Descending FlightAware ADS-B
Sun 06:39:22 PM 41.8760 -88.1170 291° West 213 245 5,400 -1,371 Descending FlightAware ADS-B
Sun 06:39:37 PM 41.8900 -88.1260 334° Northwest 217 250 5,000 -1,440 Descending FlightAware ADS-B
Sun 06:39:47 PM 41.8980 -88.1270 355° North 222 255 4,800 -2,000 Descending FlightAware ADS-B
Sun 06:40:07 PM 41.9200 -88.1260 North 226 260 4,000 -2,200 Descending FlightAware ADS-B
Sun 06:40:17 PM 41.9310 -88.1260 360° North 229 264 3,700 -1,500 Descending FlightAware ADS-B
Sun 06:40:47 PM 41.9640 -88.1200 North 223 257 3,000 -1,067 Descending FlightAware ADS-B
Sun 06:41:02 PM 41.9760 -88.1070 39° Northeast 199 229 2,900 -480 Descending FlightAware ADS-B
Sun 06:41:12 PM 41.9770 -88.0990 80° East 189 217 2,800 -800 Descending FlightAware ADS-B
Sun 06:41:32 PM 41.9730 -88.0780 104° East 179 206 2,500 -900 Descending FlightAware ADS-B
Sun 06:41:52 PM 41.9700 -88.0590 102° East 178 205 2,200 -750 Descending FlightAware ADS-B
Sun 06:42:12 PM 41.9690 -88.0350 93° East 176 203 2,000 -960 Descending FlightAware ADS-B
Sun 06:42:42 PM 41.9690 -88.0030 90° East 159 183 1,400 -982 Descending FlightAware ADS-B
Sun 06:43:07 PM 41.9690 -87.9800 90° East 150 173 1,100 -873 Descending FlightAware ADS-B
Sun 06:43:37 PM 41.9690 -87.9490 90° East 155 178 600 -1,000 Descending FlightAware ADS-B
Sun 06:51:00 PM 41.9667 -87.9000 54° Northeast  Level FlightAware Approximate

Login

Don't have an account? Register now (free) for customized features, flight alerts, and more!